Time;durP1;ratioP1;P1;durP2;ratioP2;P2;SDS_P1;SDS_P2;PMS_P1;PMS_P2;Temp;Humidity;BMP_temperature;BMP_pressure;BME280_temperature;BME280_humidity;BME280_pressure;Samples;Min_cycle;Max_cycle;Signal;HPM_P1;HPM_P2
2022/12/16 00:02:01;;;;;;;1.08;0.30;;;16.80;1.00;;;;;;5054778;28;20166;-31
2022/12/16 00:04:28;;;;;;;1.08;0.38;;;16.80;1.00;;;;;;5054394;28;20326;-31
2022/12/16 00:06:54;;;;;;;1.25;0.40;;;16.70;1.00;;;;;;5055088;28;20069;-31
2022/12/16 00:09:21;;;;;;;0.50;0.13;;;16.70;1.00;;;;;;5054605;28;20048;-31
2022/12/16 00:11:48;;;;;;;1.85;0.25;;;16.70;1.00;;;;;;5054635;28;20068;-31
2022/12/16 00:14:15;;;;;;;0.30;0.10;;;16.70;1.00;;;;;;5054232;28;20036;-31
2022/12/16 00:16:41;;;;;;;1.77;0.70;;;16.60;1.00;;;;;;5054378;28;20063;-31
2022/12/16 00:19:08;;;;;;;0.82;0.30;;;16.60;1.00;;;;;;5054352;28;20049;-31
2022/12/16 00:21:35;;;;;;;4.68;0.40;;;16.60;1.00;;;;;;5054296;28;20074;-31
2022/12/16 00:24:02;;;;;;;1.52;0.43;;;16.60;1.00;;;;;;5054004;28;20120;-31
2022/12/16 00:26:30;;;;;;;1.52;0.25;;;16.50;1.00;;;;;;5054287;28;20056;-32
2022/12/16 00:28:57;;;;;;;3.03;1.13;;;16.50;1.00;;;;;;5054555;28;20496;-31
2022/12/16 00:31:25;;;;;;;1.35;0.30;;;16.50;1.00;;;;;;5054206;28;20563;-31
2022/12/16 00:33:55;;;;;;;1.15;0.65;;;16.40;1.00;;;;;;5036133;28;20041;-32
2022/12/16 00:36:22;;;;;;;1.60;0.22;;;16.40;1.00;;;;;;5054246;28;20095;-31
2022/12/16 00:38:51;;;;;;;2.58;0.52;;;16.40;1.00;;;;;;5054100;28;20484;-31
2022/12/16 00:41:19;;;;;;;1.30;0.75;;;16.40;1.00;;;;;;5054043;28;20423;-31
2022/12/16 00:43:46;;;;;;;0.68;0.30;;;16.30;1.00;;;;;;5053712;28;20073;-31
2022/12/16 00:46:12;;;;;;;1.08;0.40;;;16.30;1.00;;;;;;5054260;28;20090;-31
2022/12/16 00:48:39;;;;;;;1.83;0.32;;;16.30;1.00;;;;;;5053858;28;20041;-31
2022/12/16 00:51:06;;;;;;;2.45;0.45;;;16.20;1.00;;;;;;5053690;28;20044;-31
2022/12/16 00:53:34;;;;;;;1.75;0.68;;;16.20;1.00;;;;;;5053695;28;20447;-31
2022/12/16 00:56:07;;;;;;;2.70;0.38;;;16.20;1.00;;;;;;5053880;28;20072;-31
2022/12/16 00:58:34;;;;;;;2.35;0.43;;;16.20;1.00;;;;;;5053786;28;20041;-31
2022/12/16 01:01:02;;;;;;;1.25;0.35;;;16.10;1.00;;;;;;5053612;28;20049;-31
2022/12/16 01:03:29;;;;;;;0.63;0.20;;;16.10;1.00;;;;;;5052575;28;20049;-31
2022/12/16 01:05:56;;;;;;;1.27;0.38;;;16.10;1.00;;;;;;5053582;28;20045;-31
2022/12/16 01:08:23;;;;;;;0.55;0.20;;;16.00;1.00;;;;;;5053642;28;20044;-31
2022/12/16 01:10:55;;;;;;;3.17;0.32;;;16.00;1.00;;;;;;5053395;28;20505;-31
2022/12/16 01:13:23;;;;;;;3.28;0.30;;;16.00;1.00;;;;;;5052871;28;20045;-31
2022/12/16 01:15:50;;;;;;;1.73;0.30;;;16.00;1.00;;;;;;5053321;28;20404;-31
2022/12/16 01:18:18;;;;;;;1.20;0.70;;;16.00;1.00;;;;;;5053321;28;20090;-32
2022/12/16 01:20:45;;;;;;;0.50;0.20;;;15.90;1.00;;;;;;5053286;28;20049;-31
2022/12/16 01:23:11;;;;;;;2.08;0.65;;;15.90;1.00;;;;;;5053020;28;20045;-31
2022/12/16 01:25:38;;;;;;;0.80;0.50;;;15.90;1.00;;;;;;5052757;28;20052;-31
2022/12/16 01:28:05;;;;;;;2.70;0.40;;;15.90;1.00;;;;;;5052974;28;20049;-31
2022/12/16 01:30:31;;;;;;;0.85;0.30;;;15.80;1.00;;;;;;5052969;28;20041;-31
2022/12/16 01:32:58;;;;;;;3.33;0.40;;;15.80;1.00;;;;;;5052765;28;20098;-31
2022/12/16 01:35:25;;;;;;;0.32;0.20;;;15.80;1.00;;;;;;5053025;28;20491;-31
2022/12/16 01:38:12;;;;;;;3.28;0.50;;;15.80;1.00;;;;;;5052791;28;20462;-31
2022/12/16 01:40:39;;;;;;;1.05;0.43;;;15.70;1.00;;;;;;5052927;28;20071;-31
2022/12/16 01:43:11;;;;;;;2.97;0.35;;;15.70;1.00;;;;;;5052533;28;20045;-31
2022/12/16 01:45:38;;;;;;;1.52;0.30;;;15.70;1.00;;;;;;5052738;28;20041;-31
2022/12/16 01:48:29;;;;;;;3.70;0.40;;;15.70;1.00;;;;;;5052790;28;20049;-31
2022/12/16 01:51:06;;;;;;;1.55;0.63;;;15.60;1.00;;;;;;5052529;28;20543;-31
2022/12/16 01:53:34;;;;;;;2.28;0.30;;;15.60;1.00;;;;;;5052346;28;20125;-31
2022/12/16 01:56:02;;;;;;;3.60;0.40;;;15.60;1.00;;;;;;5052595;28;20052;-31
2022/12/16 01:58:32;;;;;;;1.63;0.95;;;15.60;1.00;;;;;;5052624;28;20040;-31
2022/12/16 02:00:59;;;;;;;1.05;0.30;;;15.60;1.00;;;;;;5052393;28;20053;-31
2022/12/16 02:03:29;;;;;;;0.98;0.17;;;15.60;1.00;;;;;;5052077;28;20055;-31
2022/12/16 02:05:58;;;;;;;2.00;0.40;;;15.50;1.00;;;;;;5052382;28;20114;-31
2022/12/16 02:08:24;;;;;;;2.53;0.45;;;15.50;1.00;;;;;;5052401;28;20052;-31
2022/12/16 02:11:27;;;;;;;1.10;0.25;;;15.50;1.00;;;;;;5052339;28;20045;-31
2022/12/16 02:14:39;;;;;;;1.05;0.20;;;15.50;1.00;;;;;;5030014;28;20400;-31
2022/12/16 02:17:25;;;;;;;3.15;1.10;;;15.40;1.00;;;;;;5010197;28;20124;-31
2022/12/16 02:20:39;;;;;;;7.00;0.60;;;15.40;1.00;;;;;;5049065;28;20064;-31
2022/12/16 02:23:28;;;;;;;0.60;0.30;;;15.40;1.00;;;;;;5014980;28;20165;-31
2022/12/16 02:26:15;;;;;;;0.70;0.15;;;15.30;1.00;;;;;;5034122;28;20044;-31
2022/12/16 02:29:01;;;;;;;0.68;0.32;;;15.30;1.00;;;;;;5051693;28;20067;-31
2022/12/16 02:31:49;;;;;;;1.15;0.32;;;15.30;1.00;;;;;;5051989;28;20063;-31
2022/12/16 02:34:33;;;;;;;1.67;0.20;;;15.30;1.00;;;;;;5051543;28;20072;-31
2022/12/16 02:37:30;;;;;;;1.85;0.40;;;15.30;1.00;;;;;;5051826;28;20155;-31
2022/12/16 02:40:05;;;;;;;0.82;0.30;;;15.20;1.00;;;;;;5051672;28;20041;-31
2022/12/16 02:42:40;;;;;;;1.08;0.35;;;15.20;1.00;;;;;;5051602;28;20049;-31
2022/12/16 02:45:18;;;;;;;1.60;0.25;;;15.20;1.00;;;;;;5051593;28;20055;-31
2022/12/16 02:47:45;;;;;;;2.00;0.30;;;15.20;1.00;;;;;;5051902;28;20101;-31
2022/12/16 02:50:20;;;;;;;2.58;0.30;;;15.20;1.00;;;;;;5051715;28;20091;-31
2022/12/16 02:52:49;;;;;;;1.33;0.10;;;15.10;1.00;;;;;;5051493;28;20045;-31
2022/12/16 02:55:16;;;;;;;1.40;0.32;;;15.20;1.00;;;;;;5051497;28;20511;-31
2022/12/16 02:57:57;;;;;;;1.23;0.40;;;15.10;1.00;;;;;;5051743;28;20048;-31
2022/12/16 03:00:27;;;;;;;1.40;0.40;;;15.10;1.00;;;;;;5051725;28;20123;-31
2022/12/16 03:03:10;;;;;;;0.50;0.15;;;15.10;1.00;;;;;;5051497;28;20127;-31
2022/12/16 03:05:39;;;;;;;3.72;0.20;;;15.10;1.00;;;;;;5051566;28;20124;-31
2022/12/16 03:08:17;;;;;;;1.58;0.40;;;15.00;1.00;;;;;;5051670;28;20551;-31
2022/12/16 03:10:50;;;;;;;1.00;0.50;;;15.00;1.00;;;;;;5051522;28;20488;-31
2022/12/16 03:13:19;;;;;;;0.40;0.15;;;15.00;1.00;;;;;;5051274;28;20493;-31
2022/12/16 03:15:48;;;;;;;1.15;0.30;;;15.00;1.00;;;;;;5051371;28;20058;-31
2022/12/16 03:18:17;;;;;;;1.27;0.35;;;15.00;1.00;;;;;;5051496;28;20415;-32
2022/12/16 03:20:49;;;;;;;1.30;0.40;;;14.90;1.00;;;;;;5051408;28;20542;-30
2022/12/16 03:23:24;;;;;;;1.42;0.40;;;14.90;1.00;;;;;;5051318;28;20087;-30
2022/12/16 03:25:55;;;;;;;1.17;0.35;;;14.80;1.00;;;;;;5088971;22;20276;-36
2022/12/16 03:28:48;;;;;;;1.58;0.40;;;14.80;1.00;;;;;;5077639;28;20058;-35
2022/12/16 03:31:52;;;;;;;1.00;0.40;;;14.80;1.00;;;;;;5098544;28;20036;-36
2022/12/16 03:34:38;;;;;;;1.05;0.20;;;14.80;1.00;;;;;;5105374;28;20076;-36
2022/12/16 03:37:08;;;;;;;0.80;0.20;;;14.70;1.00;;;;;;5107393;28;20066;-36
2022/12/16 03:39:43;;;;;;;1.33;0.45;;;14.70;1.00;;;;;;5101618;28;20036;-36
2022/12/16 03:42:12;;;;;;;1.10;0.20;;;14.70;1.00;;;;;;5107221;28;20036;-36
2022/12/16 03:44:39;;;;;;;0.98;0.30;;;14.70;1.00;;;;;;5110240;28;20061;-36
2022/12/16 03:47:06;;;;;;;0.70;0.30;;;14.70;1.00;;;;;;5104918;28;20114;-36
2022/12/16 03:49:32;;;;;;;1.10;0.50;;;14.70;1.00;;;;;;5115344;28;20131;-40
2022/12/16 03:51:59;;;;;;;1.60;0.20;;;14.70;1.00;;;;;;5115599;28;20039;-36
2022/12/16 03:54:26;;;;;;;1.55;0.40;;;14.70;1.00;;;;;;5115314;28;20415;-36
2022/12/16 03:56:53;;;;;;;0.85;0.30;;;14.70;1.00;;;;;;5115750;28;20036;-36
2022/12/16 03:59:20;;;;;;;1.20;0.35;;;14.70;1.00;;;;;;5114347;28;20487;-35
2022/12/16 04:01:46;;;;;;;1.65;0.30;;;14.60;1.00;;;;;;5106787;28;20040;-36
2022/12/16 04:04:13;;;;;;;0.70;0.20;;;14.60;1.00;;;;;;5096667;28;20403;-36
2022/12/16 04:06:40;;;;;;;1.10;0.20;;;14.60;1.00;;;;;;5115278;28;20551;-35
2022/12/16 04:09:07;;;;;;;0.47;0.20;;;14.60;1.00;;;;;;5115238;28;20118;-36
2022/12/16 04:25:38;;;;;;;0.98;0.35;;;14.50;1.00;;;;;;5111590;28;20063;-36
2022/12/16 04:28:04;;;;;;;0.95;0.38;;;14.50;1.00;;;;;;5114953;28;20147;-36
2022/12/16 04:30:35;;;;;;;1.15;0.22;;;14.40;1.00;;;;;;5114835;28;20039;-36
